Time;durP1;ratioP1;P1;durP2;ratioP2;P2;SDS_P1;SDS_P2;PMS_P1;PMS_P2;Temp;Humidity;BMP_temperature;BMP_pressure;BME280_temperature;BME280_humidity;BME280_pressure;Samples;Min_cycle;Max_cycle;Signal;HPM_P1;HPM_P2
2021/12/17 00:01:17;;;;;;;2.30;2.13;;;17.80;66.60;;;;;;10373751;28;20722;-73
2021/12/17 00:06:47;;;;;;;2.13;1.93;;;17.70;66.60;;;;;;10368492;28;20670;-73
2021/12/17 00:12:15;;;;;;;2.17;1.97;;;17.80;66.60;;;;;;10374563;28;20194;-73
2021/12/17 00:17:48;;;;;;;2.50;1.90;;;17.70;66.50;;;;;;10374680;28;20210;-73
2021/12/17 00:57:18;;;;;;;2.20;2.00;;;17.70;66.60;;;;;;10373353;28;20297;-73
2021/12/17 01:02:42;;;;;;;2.03;1.83;;;17.70;66.50;;;;;;10373433;28;20229;-73
2021/12/17 01:08:05;;;;;;;2.07;1.97;;;17.70;66.60;;;;;;10372354;28;20210;-74
2021/12/17 01:13:29;;;;;;;2.20;2.00;;;17.70;66.60;;;;;;10373087;28;20198;-74
2021/12/17 01:19:02;;;;;;;2.23;2.03;;;17.70;66.60;;;;;;10372355;28;20223;-73
2021/12/17 01:35:51;;;;;;;2.73;2.33;;;17.70;66.60;;;;;;10367530;28;20661;-74
2021/12/17 01:41:45;;;;;;;2.30;2.10;;;17.70;66.60;;;;;;10372278;28;20597;-73
2021/12/17 01:47:12;;;;;;;2.40;2.20;;;17.70;66.60;;;;;;10368714;28;20301;-73
2021/12/17 02:03:56;;;;;;;2.30;2.10;;;17.70;66.60;;;;;;10370539;28;20221;-73
2021/12/17 02:32:04;;;;;;;2.10;1.90;;;17.70;66.60;;;;;;10370546;28;20193;-73
2021/12/17 02:37:30;;;;;;;2.37;2.17;;;17.70;66.60;;;;;;10370742;28;20222;-73
2021/12/17 02:48:34;;;;;;;1.97;1.80;;;17.70;66.60;;;;;;10369698;28;20214;-73
2021/12/17 02:54:00;;;;;;;1.97;1.80;;;17.70;66.60;;;;;;10368834;28;20193;-73
2021/12/17 02:59:23;;;;;;;2.60;1.53;;;17.70;66.60;;;;;;10368899;28;20601;-72
2021/12/17 03:04:45;;;;;;;1.87;1.77;;;17.70;66.50;;;;;;10368321;28;20198;-73
2021/12/17 03:10:11;;;;;;;1.63;1.53;;;17.70;66.60;;;;;;10368137;28;20214;-73
2021/12/17 03:15:38;;;;;;;1.50;1.37;;;17.70;66.50;;;;;;10373728;28;20701;-73
2021/12/17 03:26:41;;;;;;;1.70;1.60;;;17.70;66.60;;;;;;10376929;28;20831;-73
2021/12/17 03:32:04;;;;;;;1.83;1.73;;;17.70;66.60;;;;;;10376422;28;20190;-74
2021/12/17 03:37:26;;;;;;;1.57;1.40;;;17.70;66.60;;;;;;10376488;28;20693;-73
2021/12/17 03:42:51;;;;;;;1.80;1.70;;;17.60;66.50;;;;;;10375648;28;20574;-73
2021/12/17 03:48:13;;;;;;;1.67;1.57;;;17.70;66.60;;;;;;10375067;28;20226;-74
2021/12/17 03:53:35;;;;;;;1.67;1.57;;;17.70;66.60;;;;;;10375481;28;20198;-74
2021/12/17 03:58:59;;;;;;;1.57;1.47;;;17.70;66.60;;;;;;10375415;28;20218;-74
2021/12/17 04:04:21;;;;;;;1.70;1.60;;;17.70;66.50;;;;;;10374840;28;20572;-73
2021/12/17 04:09:43;;;;;;;1.47;1.37;;;17.70;66.50;;;;;;10374739;28;20259;-73
2021/12/17 04:15:08;;;;;;;1.57;1.47;;;17.70;66.50;;;;;;10376623;28;20194;-73
2021/12/17 04:20:30;;;;;;;1.60;1.50;;;17.70;66.50;;;;;;10375588;28;20222;-73
2021/12/17 04:25:52;;;;;;;1.40;1.30;;;17.70;66.50;;;;;;10375015;28;20213;-73
2021/12/17 04:31:17;;;;;;;1.47;1.37;;;17.70;66.50;;;;;;10375723;28;20206;-73
2021/12/17 04:36:39;;;;;;;1.20;1.10;;;17.70;66.50;;;;;;10375467;28;20213;-73
2021/12/17 04:42:06;;;;;;;1.13;1.10;;;17.60;66.40;;;;;;10377876;28;20282;-73
2021/12/17 04:58:53;;;;;;;1.17;1.07;;;17.70;66.40;;;;;;10371005;28;20298;-74
2021/12/17 05:04:17;;;;;;;1.40;1.30;;;17.70;66.40;;;;;;10369769;28;20218;-74
2021/12/17 05:09:46;;;;;;;1.30;1.20;;;17.70;66.40;;;;;;10371072;28;20240;-73
2021/12/17 05:20:54;;;;;;;1.20;1.10;;;17.70;66.40;;;;;;10371421;28;20244;-73
2021/12/17 05:26:19;;;;;;;0.90;0.90;;;17.70;66.40;;;;;;10370504;28;20198;-73
2021/12/17 05:31:42;;;;;;;1.50;1.00;;;17.70;66.40;;;;;;10370744;28;20186;-74
2021/12/17 05:37:06;;;;;;;1.20;1.10;;;17.80;66.40;;;;;;10368173;28;20242;-74
2021/12/17 05:42:28;;;;;;;1.10;1.10;;;17.80;66.30;;;;;;10370262;28;20221;-72
2021/12/17 05:47:50;;;;;;;1.20;1.10;;;17.80;66.40;;;;;;10408379;22;20228;-68
2021/12/17 05:53:14;;;;;;;1.07;1.00;;;17.80;66.40;;;;;;10448937;28;20209;-68
2021/12/17 05:58:36;;;;;;;1.10;1.00;;;17.80;66.30;;;;;;10446207;28;20213;-68
2021/12/17 06:03:58;;;;;;;1.03;1.00;;;17.80;66.40;;;;;;10452886;28;20220;-67
2021/12/17 06:09:21;;;;;;;1.20;1.10;;;17.80;66.30;;;;;;10452366;28;20213;-66
2021/12/17 06:14:43;;;;;;;0.90;0.90;;;17.80;66.30;;;;;;10452291;28;20201;-66
2021/12/17 06:20:07;;;;;;;1.57;0.70;;;17.80;66.30;;;;;;10451962;28;20216;-66
2021/12/17 06:25:31;;;;;;;0.90;0.90;;;17.80;66.30;;;;;;10452387;28;20576;-66
2021/12/17 06:30:53;;;;;;;2.30;1.20;;;17.80;66.20;;;;;;10453022;28;20220;-66
2021/12/17 06:36:15;;;;;;;1.20;1.10;;;17.80;66.20;;;;;;10451780;28;20212;-66
2021/12/17 06:41:38;;;;;;;1.10;1.00;;;17.80;66.20;;;;;;10451258;28;20232;-66
2021/12/17 06:47:05;;;;;;;1.27;1.17;;;17.80;66.20;;;;;;10450510;28;20660;-66
2021/12/17 07:10:02;;;;;;;1.33;1.13;;;17.80;66.20;;;;;;10439594;28;20561;-66
2021/12/17 07:21:24;;;;;;;1.33;1.23;;;18.10;65.30;;;;;;10448953;28;20229;-66
2021/12/17 07:32:42;;;;;;;1.27;1.13;;;17.80;66.50;;;;;;10446997;28;20546;-65
2021/12/17 07:43:53;;;;;;;0.90;0.90;;;17.70;66.80;;;;;;10431803;28;20628;-65
2021/12/17 07:49:16;;;;;;;1.10;1.03;;;17.70;66.90;;;;;;10448886;28;20237;-65
2021/12/17 07:54:38;;;;;;;1.23;1.00;;;17.70;67.00;;;;;;10444640;28;20204;-65
2021/12/17 08:00:00;;;;;;;0.97;0.90;;;17.70;67.10;;;;;;10451300;28;20221;-65
2021/12/17 08:05:24;;;;;;;1.27;1.17;;;17.70;67.00;;;;;;10456728;28;20205;-65
2021/12/17 08:10:47;;;;;;;0.80;0.80;;;17.70;67.00;;;;;;10446760;28;20331;-65
2021/12/17 08:16:26;;;;;;;1.07;1.03;;;17.70;67.10;;;;;;10458332;28;20873;-65
2021/12/17 08:27:43;;;;;;;0.97;0.77;;;17.70;67.10;;;;;;10455238;28;20755;-65
2021/12/17 08:33:06;;;;;;;0.93;0.73;;;17.70;67.20;;;;;;10452054;28;20189;-65
2021/12/17 08:38:31;;;;;;;1.13;0.83;;;17.70;67.20;;;;;;10456480;28;20703;-65
2021/12/17 08:43:53;;;;;;;0.93;0.90;;;17.70;67.30;;;;;;10447595;28;20315;-65
2021/12/17 08:49:15;;;;;;;0.70;0.70;;;17.70;67.20;;;;;;10453308;28;20221;-64
2021/12/17 08:54:39;;;;;;;0.80;0.80;;;17.70;67.10;;;;;;10453362;28;20197;-64
2021/12/17 09:00:06;;;;;;;0.70;0.70;;;17.80;67.20;;;;;;10450073;28;20592;-65
2021/12/17 09:05:28;;;;;;;0.80;0.80;;;17.80;67.30;;;;;;10453937;28;20275;-65
2021/12/17 09:10:55;;;;;;;0.70;0.70;;;17.80;67.30;;;;;;10445832;28;20221;-64
2021/12/17 09:16:20;;;;;;;1.97;0.87;;;17.80;67.30;;;;;;10451947;28;20205;-64
2021/12/17 09:21:43;;;;;;;0.77;0.77;;;17.80;67.40;;;;;;10453805;28;20577;-64
2021/12/17 09:27:07;;;;;;;0.77;0.73;;;17.80;67.40;;;;;;10446367;28;20894;-64
2021/12/17 09:32:29;;;;;;;0.80;0.80;;;17.80;67.40;;;;;;10453968;28;20205;-64
2021/12/17 09:37:51;;;;;;;1.10;0.70;;;17.80;67.50;;;;;;10452835;28;20599;-64
2021/12/17 09:43:15;;;;;;;0.80;0.80;;;17.80;67.40;;;;;;10446985;28;20292;-65
2021/12/17 09:48:38;;;;;;;0.80;0.80;;;17.80;67.40;;;;;;10451054;28;20592;-65
2021/12/17 09:54:00;;;;;;;0.77;0.77;;;17.80;67.50;;;;;;10452281;28;20200;-67
2021/12/17 09:59:24;;;;;;;0.87;0.70;;;17.80;67.50;;;;;;10449656;28;20692;-66
2021/12/17 10:04:46;;;;;;;0.60;0.60;;;17.80;67.50;;;;;;10449470;28;20223;-67
2021/12/17 10:10:08;;;;;;;1.13;0.77;;;17.80;67.50;;;;;;10451498;28;20300;-68
2021/12/17 10:15:36;;;;;;;0.67;0.67;;;17.80;67.40;;;;;;10450917;28;20189;-67
2021/12/17 10:21:01;;;;;;;0.60;0.60;;;17.80;67.50;;;;;;10440568;28;20714;-67
2021/12/17 10:26:24;;;;;;;0.60;0.60;;;17.80;67.50;;;;;;10450293;28;20201;-66
2021/12/17 10:31:56;;;;;;;0.70;0.70;;;17.80;67.60;;;;;;10449635;28;20282;-66
2021/12/17 10:37:32;;;;;;;0.60;0.60;;;17.80;67.40;;;;;;10449392;28;20227;-66
2021/12/17 10:43:03;;;;;;;0.57;0.57;;;17.80;67.30;;;;;;10448365;28;20305;-65
2021/12/17 10:48:34;;;;;;;1.53;0.70;;;17.80;67.40;;;;;;10446313;28;20714;-64
2021/12/17 10:53:59;;;;;;;1.80;0.53;;;17.80;67.50;;;;;;10434703;28;20202;-64
2021/12/17 10:59:24;;;;;;;0.77;0.60;;;17.90;67.50;;;;;;10448880;28;20217;-66
2021/12/17 11:04:51;;;;;;;0.90;0.50;;;17.90;67.50;;;;;;10449686;28;20212;-65
2021/12/17 11:10:15;;;;;;;0.30;0.30;;;17.90;67.50;;;;;;10448355;28;20381;-63
2021/12/17 11:15:37;;;;;;;0.50;0.50;;;17.90;67.40;;;;;;10444081;28;20228;-64
2021/12/17 11:21:01;;;;;;;0.40;0.40;;;18.00;67.40;;;;;;10426917;28;20225;-64
2021/12/17 11:26:23;;;;;;;1.33;0.60;;;18.00;67.40;;;;;;10445629;28;20200;-65
2021/12/17 11:31:48;;;;;;;0.50;0.50;;;18.00;67.40;;;;;;10451171;28;20603;-65
2021/12/17 11:37:12;;;;;;;0.57;0.50;;;18.00;67.40;;;;;;10450880;28;20221;-65
2021/12/17 11:43:00;;;;;;;0.40;0.40;;;18.00;67.50;;;;;;10446433;28;20235;-65
2021/12/17 11:48:23;;;;;;;0.90;0.60;;;18.00;67.30;;;;;;10463886;22;20263;-77
2021/12/17 11:54:06;;;;;;;0.90;0.50;;;18.00;67.70;;;;;;10420533;28;20272;-74
2021/12/17 11:59:37;;;;;;;0.50;0.50;;;18.00;67.50;;;;;;10418840;28;20221;-75
2021/12/17 12:05:00;;;;;;;1.57;0.60;;;18.00;67.70;;;;;;10424363;28;20210;-75
2021/12/17 12:10:23;;;;;;;2.10;1.07;;;18.00;68.20;;;;;;10416736;28;20218;-74
2021/12/17 12:15:45;;;;;;;11.73;1.60;;;18.00;67.60;;;;;;10420876;28;20209;-73
2021/12/17 12:21:08;;;;;;;3.87;1.43;;;18.00;67.60;;;;;;10419765;28;20596;-75
2021/12/17 12:26:40;;;;;;;1.75;1.35;;;17.90;67.60;;;;;;10403921;28;20434;-74
2021/12/17 12:32:14;;;;;;;1.47;1.20;;;19.00;63.90;;;;;;10411317;28;20912;-73
2021/12/17 12:37:36;;;;;;;2.80;1.80;;;18.30;66.00;;;;;;10419698;28;20201;-73
2021/12/17 12:42:59;;;;;;;2.10;1.60;;;18.10;67.00;;;;;;10406007;28;20324;-73
2021/12/17 12:48:38;;;;;;;1.70;1.30;;;18.00;67.50;;;;;;10416060;28;20226;-74
2021/12/17 12:54:06;;;;;;;2.13;1.67;;;17.90;67.60;;;;;;10415034;28;20201;-73
2021/12/17 12:59:32;;;;;;;4.93;1.80;;;17.90;67.90;;;;;;10411621;28;20229;-73
2021/12/17 13:04:55;;;;;;;1.77;1.47;;;17.80;67.90;;;;;;10411669;28;20222;-82
2021/12/17 13:10:20;;;;;;;2.87;1.90;;;17.90;67.90;;;;;;10414104;28;20622;-76
2021/12/17 13:15:49;;;;;;;3.40;2.00;;;17.90;67.80;;;;;;10408486;28;20202;-77
2021/12/17 13:21:33;;;;;;;3.93;2.23;;;17.90;67.70;;;;;;10407724;28;20592;-75
2021/12/17 13:26:57;;;;;;;3.17;2.60;;;17.90;67.70;;;;;;10420166;28;20422;-75
2021/12/17 13:32:21;;;;;;;3.40;2.20;;;17.90;67.60;;;;;;10431481;28;20213;-76
2021/12/17 13:37:43;;;;;;;7.30;2.30;;;18.00;67.70;;;;;;10442945;28;20201;-75
2021/12/17 13:43:05;;;;;;;4.07;2.67;;;18.00;67.70;;;;;;10411441;28;20213;-76
2021/12/17 13:48:29;;;;;;;3.03;2.10;;;18.00;67.70;;;;;;10411771;28;20236;-74
2021/12/17 13:53:52;;;;;;;3.00;2.00;;;18.00;67.60;;;;;;10407653;28;20194;-75
2021/12/17 13:59:14;;;;;;;2.77;1.87;;;18.00;67.70;;;;;;10412915;28;20226;-74
2021/12/17 14:04:38;;;;;;;3.20;2.07;;;18.00;67.60;;;;;;10407593;28;20430;-74
2021/12/17 14:10:02;;;;;;;3.60;1.80;;;18.70;65.50;;;;;;10392784;28;20566;-73
2021/12/17 14:15:28;;;;;;;3.80;1.73;;;18.20;66.70;;;;;;10394305;28;20201;-72
2021/12/17 14:20:53;;;;;;;2.97;1.90;;;18.00;67.40;;;;;;10393449;28;20222;-71
2021/12/17 14:26:15;;;;;;;2.00;1.53;;;17.90;67.60;;;;;;10398910;28;20200;-70
2021/12/17 14:31:37;;;;;;;2.33;1.60;;;17.80;67.80;;;;;;10404950;28;20213;-72
2021/12/17 14:37:03;;;;;;;2.03;1.63;;;17.90;67.80;;;;;;10404505;28;20645;-71
2021/12/17 14:42:31;;;;;;;2.23;1.80;;;17.90;67.90;;;;;;10405476;28;20446;-73
2021/12/17 14:47:58;;;;;;;2.37;1.53;;;18.70;64.60;;;;;;10409635;28;20206;-73
2021/12/17 15:05:07;;;;;;;3.43;1.50;;;18.00;67.60;;;;;;10401068;28;20267;-72
2021/12/17 15:10:31;;;;;;;2.70;1.87;;;18.00;67.70;;;;;;10412274;28;20210;-72
2021/12/17 15:15:54;;;;;;;3.97;1.40;;;18.00;67.70;;;;;;10398152;28;20194;-71
2021/12/17 15:21:16;;;;;;;2.23;1.43;;;18.00;67.70;;;;;;10416056;28;20232;-72
2021/12/17 15:26:40;;;;;;;2.33;1.37;;;18.00;67.80;;;;;;10421911;28;20205;-72
2021/12/17 15:32:02;;;;;;;2.87;1.70;;;18.00;67.80;;;;;;10406212;28;20218;-72
2021/12/17 15:37:24;;;;;;;1.97;1.40;;;18.00;67.90;;;;;;10416689;28;20209;-72
2021/12/17 15:42:48;;;;;;;1.73;1.40;;;18.00;67.90;;;;;;10414879;28;20783;-72
2021/12/17 15:48:13;;;;;;;1.73;1.43;;;18.00;67.90;;;;;;10408360;28;20225;-72
2021/12/17 15:53:36;;;;;;;2.07;1.33;;;18.00;68.00;;;;;;10415048;28;20201;-72
2021/12/17 15:58:59;;;;;;;2.10;1.40;;;17.90;67.90;;;;;;10415498;28;20214;-72
2021/12/17 16:04:21;;;;;;;4.73;1.43;;;18.00;68.00;;;;;;10418192;28;20862;-76
2021/12/17 16:21:06;;;;;;;2.40;1.30;;;18.00;68.10;;;;;;10419418;28;20719;-72
2021/12/17 16:26:28;;;;;;;2.10;1.30;;;18.00;68.20;;;;;;10427331;28;20248;-74
2021/12/17 16:31:52;;;;;;;2.37;1.50;;;18.00;68.20;;;;;;10432336;28;20225;-74
2021/12/17 16:37:15;;;;;;;2.20;1.43;;;18.00;68.30;;;;;;10422507;28;20224;-73
2021/12/17 16:42:37;;;;;;;2.40;1.20;;;18.00;68.30;;;;;;10422593;28;20651;-72
2021/12/17 16:48:05;;;;;;;2.53;1.10;;;18.00;68.20;;;;;;10417413;28;20656;-72
2021/12/17 16:53:27;;;;;;;2.93;1.37;;;18.00;68.20;;;;;;10425682;28;20229;-74
2021/12/17 16:58:52;;;;;;;2.40;1.17;;;18.00;68.20;;;;;;10401587;28;20247;-74
2021/12/17 17:04:16;;;;;;;1.80;1.07;;;18.00;68.20;;;;;;10415850;28;20224;-74
2021/12/17 17:09:38;;;;;;;2.50;1.20;;;18.00;68.10;;;;;;10416815;28;20217;-74
2021/12/17 17:15:00;;;;;;;1.83;1.20;;;18.00;68.10;;;;;;10406115;28;20582;-73
2021/12/17 17:20:24;;;;;;;1.47;1.10;;;18.00;68.00;;;;;;10410052;28;20233;-73
2021/12/17 17:25:46;;;;;;;1.70;1.03;;;18.00;67.90;;;;;;10419660;28;20218;-73
2021/12/17 17:31:08;;;;;;;2.20;1.13;;;18.00;67.90;;;;;;10415093;28;20228;-74
2021/12/17 17:36:32;;;;;;;2.03;1.10;;;18.00;67.80;;;;;;10404269;28;20198;-74
2021/12/17 17:41:54;;;;;;;2.13;1.23;;;18.00;67.80;;;;;;10411757;28;20221;-74
2021/12/17 17:47:19;;;;;;;1.80;1.10;;;18.00;67.80;;;;;;10413071;28;20584;-73
2021/12/17 17:52:43;;;;;;;1.73;1.07;;;18.00;67.70;;;;;;10407906;28;20216;-74
2021/12/17 17:58:06;;;;;;;1.77;1.07;;;18.00;67.70;;;;;;10412110;28;20236;-73
2021/12/17 18:03:28;;;;;;;4.50;1.30;;;18.00;67.70;;;;;;10411907;28;20253;-72
2021/12/17 18:08:51;;;;;;;1.53;0.90;;;18.00;67.70;;;;;;10412434;28;20210;-72
2021/12/17 18:14:14;;;;;;;2.00;1.10;;;18.00;67.70;;;;;;10410277;28;20194;-73
2021/12/17 18:19:36;;;;;;;1.37;1.00;;;18.00;67.70;;;;;;10409653;28;20213;-72
2021/12/17 18:25:00;;;;;;;1.27;0.90;;;18.00;67.70;;;;;;10412461;28;20213;-74
2021/12/17 18:30:23;;;;;;;1.30;0.90;;;18.00;67.70;;;;;;10410123;28;20218;-74
2021/12/17 18:35:45;;;;;;;2.07;0.90;;;18.00;67.70;;;;;;10411736;28;20200;-74
2021/12/17 18:41:18;;;;;;;1.43;1.10;;;18.00;67.60;;;;;;10408947;28;20224;-74
2021/12/17 18:46:45;;;;;;;1.50;1.00;;;18.00;67.60;;;;;;10404356;28;20222;-74
2021/12/17 18:52:08;;;;;;;1.20;0.97;;;18.00;67.50;;;;;;10399283;28;21283;-74
2021/12/17 18:57:31;;;;;;;1.83;1.20;;;18.00;67.50;;;;;;10417199;28;20197;-74
2021/12/17 19:02:53;;;;;;;1.37;1.07;;;18.00;67.50;;;;;;10401353;28;20221;-74
2021/12/17 19:08:16;;;;;;;2.00;1.20;;;18.00;67.70;;;;;;10409667;28;20221;-74
2021/12/17 19:13:40;;;;;;;2.78;1.50;;;18.00;67.70;;;;;;10417759;28;20417;-74
2021/12/17 19:19:10;;;;;;;2.13;1.40;;;18.70;65.20;;;;;;10412134;28;20225;-73
2021/12/17 19:24:32;;;;;;;1.63;1.30;;;18.30;66.60;;;;;;10428079;28;20213;-73
2021/12/17 19:29:55;;;;;;;2.00;1.80;;;18.20;67.30;;;;;;10401878;28;20421;-74
2021/12/17 19:35:19;;;;;;;1.90;1.40;;;19.10;63.90;;;;;;10402423;28;20208;-73
2021/12/17 19:40:42;;;;;;;3.10;1.80;;;18.50;66.00;;;;;;10403812;28;20819;-70
2021/12/17 19:46:07;;;;;;;2.30;1.83;;;18.20;66.80;;;;;;10402580;28;20738;-72
2021/12/17 19:51:29;;;;;;;2.30;1.50;;;18.20;67.30;;;;;;10401534;28;20221;-71
2021/12/17 19:56:51;;;;;;;2.43;1.40;;;18.10;67.40;;;;;;10401775;28;20198;-72
2021/12/17 20:02:15;;;;;;;2.47;1.43;;;18.10;67.50;;;;;;10415229;28;20585;-72
2021/12/17 20:07:37;;;;;;;2.30;1.50;;;18.10;67.60;;;;;;10415868;28;20284;-71
2021/12/17 20:13:00;;;;;;;1.47;1.37;;;18.00;67.60;;;;;;10413857;28;20206;-74
2021/12/17 20:18:24;;;;;;;2.20;1.67;;;18.00;67.70;;;;;;10414287;28;20578;-73
2021/12/17 20:23:46;;;;;;;3.00;1.70;;;18.00;67.70;;;;;;10413969;28;20261;-73
2021/12/17 20:29:08;;;;;;;1.93;1.30;;;18.00;67.60;;;;;;10409640;28;20213;-74
2021/12/17 20:34:32;;;;;;;1.40;1.30;;;18.00;67.60;;;;;;10409014;28;20569;-73
2021/12/17 20:39:55;;;;;;;1.80;1.27;;;18.00;67.60;;;;;;10386083;28;20220;-73
2021/12/17 20:45:21;;;;;;;2.00;1.73;;;18.00;67.60;;;;;;10410023;28;20221;-73
2021/12/17 20:50:45;;;;;;;1.83;1.40;;;18.00;67.60;;;;;;10414517;28;20302;-73
2021/12/17 20:56:07;;;;;;;1.80;1.50;;;18.00;67.60;;;;;;10414034;28;20571;-73
2021/12/17 21:01:31;;;;;;;2.23;1.40;;;18.00;67.50;;;;;;10411306;28;20704;-73
2021/12/17 21:06:55;;;;;;;2.00;1.63;;;18.00;67.50;;;;;;10411138;28;20257;-73
2021/12/17 21:12:17;;;;;;;2.77;1.60;;;18.00;67.50;;;;;;10412493;28;20213;-73
2021/12/17 21:17:40;;;;;;;1.80;1.60;;;18.00;67.50;;;;;;10413184;28;20549;-73
2021/12/17 21:23:04;;;;;;;1.47;1.30;;;18.00;67.50;;;;;;10414132;28;20218;-73
2021/12/17 21:28:26;;;;;;;1.33;1.20;;;18.00;67.50;;;;;;10414434;28;20709;-71
2021/12/17 21:33:48;;;;;;;2.57;1.20;;;18.00;67.50;;;;;;10412690;28;20542;-73
2021/12/17 21:39:12;;;;;;;1.33;1.03;;;18.00;67.50;;;;;;10412213;28;20228;-74
2021/12/17 21:44:39;;;;;;;1.33;1.23;;;18.00;67.50;;;;;;10413097;28;20302;-73
2021/12/17 21:50:03;;;;;;;3.23;1.60;;;18.00;67.50;;;;;;10417463;28;20229;-74
2021/12/17 21:55:27;;;;;;;1.47;1.27;;;18.00;67.50;;;;;;10414188;28;20563;-74
2021/12/17 22:00:55;;;;;;;1.80;1.20;;;17.90;67.50;;;;;;10413263;28;20224;-73
2021/12/17 22:06:19;;;;;;;2.03;1.40;;;18.00;67.60;;;;;;10412131;28;20221;-73
2021/12/17 22:11:43;;;;;;;1.37;1.20;;;17.90;67.50;;;;;;10413150;28;20220;-73
2021/12/17 22:17:06;;;;;;;1.37;1.20;;;17.90;67.50;;;;;;10412028;28;20265;-73
2021/12/17 22:22:31;;;;;;;1.10;0.93;;;17.90;67.50;;;;;;10411414;28;20213;-73
2021/12/17 22:27:54;;;;;;;1.20;1.10;;;17.90;67.50;;;;;;10411330;28;20196;-73
2021/12/17 22:33:17;;;;;;;1.40;1.23;;;17.90;67.50;;;;;;10410724;28;20201;-73
2021/12/17 22:38:42;;;;;;;1.27;1.10;;;17.90;67.50;;;;;;10410641;28;20236;-73
2021/12/17 22:44:06;;;;;;;1.20;1.10;;;17.90;67.50;;;;;;10410182;28;20558;-71
2021/12/17 22:49:28;;;;;;;1.20;1.10;;;17.90;67.40;;;;;;10410488;28;20240;-73
2021/12/17 22:54:50;;;;;;;1.70;1.13;;;17.90;67.40;;;;;;10411229;28;20201;-73
2021/12/17 23:00:26;;;;;;;1.00;0.90;;;17.90;67.40;;;;;;10409634;28;20217;-73
2021/12/17 23:05:49;;;;;;;1.37;1.03;;;17.90;67.30;;;;;;10406989;28;20222;-74
2021/12/17 23:11:12;;;;;;;1.67;1.00;;;17.90;67.50;;;;;;10409419;28;20209;-74
2021/12/17 23:16:37;;;;;;;1.10;0.80;;;17.90;67.50;;;;;;10379807;28;20197;-73
2021/12/17 23:22:00;;;;;;;1.10;1.00;;;17.90;67.50;;;;;;10410090;28;20240;-73
2021/12/17 23:27:22;;;;;;;1.17;0.97;;;17.90;67.50;;;;;;10410038;28;20221;-73
2021/12/17 23:32:51;;;;;;;1.40;1.07;;;17.90;67.40;;;;;;10414956;28;20198;-72
2021/12/17 23:38:13;;;;;;;1.40;0.90;;;17.90;67.40;;;;;;10418231;28;20294;-73
2021/12/17 23:43:36;;;;;;;1.20;1.10;;;17.90;67.40;;;;;;10415975;28;20248;-73
2021/12/17 23:48:59;;;;;;;1.10;0.90;;;17.90;67.40;;;;;;10417157;28;20593;-73
2021/12/17 23:54:21;;;;;;;1.17;1.00;;;17.90;67.40;;;;;;10417656;28;20193;-73
2021/12/17 23:59:45;;;;;;;1.20;0.87;;;17.90;67.40;;;;;;10417375;28;20214;-71
